Private Wetterstation Sandau
Wetterdaten: Dienstag, 07.02.2012
Datum Zeit Temp. A. Feuchte A. Luftdruck Regen Wind Richtung Richtung Taupunkt Windchill
07.02.2012 00:02 -15,1 C 71 % 1040,8 hPa 0,0 l/m 2,9 km/h (1 Bft) O 90 -19,1 C -15,1 C
07.02.2012 00:07 -15,1 C 71 % 1040,8 hPa 0,0 l/m 2,5 km/h (1 Bft) O 90 -19,1 C -15,1 C
07.02.2012 00:12 -15,1 C 71 % 1040,7 hPa 0,0 l/m 2,9 km/h (1 Bft) O 90 -19,1 C -15,1 C
07.02.2012 00:17 -15,1 C 71 % 1040,8 hPa 0,0 l/m 3,6 km/h (1 Bft) O 90 -19,1 C -15,1 C
07.02.2012 00:22 -15,1 C 71 % 1040,8 hPa 0,0 l/m 2,9 km/h (1 Bft) O 90 -19,1 C -15,1 C
07.02.2012 00:27 -15,2 C 71 % 1040,8 hPa 0,0 l/m 0,0 km/h (0 Bft) O 90 -19,2 C -15,2 C
07.02.2012 00:32 -15,2 C 71 % 1040,9 hPa 0,0 l/m 3,2 km/h (1 Bft) O 90 -19,2 C -15,2 C
07.02.2012 00:37 -15,2 C 71 % 1040,9 hPa 0,0 l/m 2,5 km/h (1 Bft) O 90 -19,2 C -15,2 C
07.02.2012 00:42 -15,2 C 71 % 1041,0 hPa 0,0 l/m 0,0 km/h (0 Bft) O 90 -19,2 C -15,2 C
07.02.2012 00:47 -15,3 C 71 % 1040,8 hPa 0,0 l/m 2,5 km/h (1 Bft) O 90 -19,3 C -15,3 C
07.02.2012 00:52 -15,3 C 71 % 1040,8 hPa 0,0 l/m 2,2 km/h (1 Bft) O 90 -19,3 C -15,3 C
07.02.2012 00:57 -15,3 C 71 % 1040,8 hPa 0,0 l/m 2,2 km/h (1 Bft) O 90 -19,3 C -15,3 C
07.02.2012 01:02 -15,3 C 71 % 1040,7 hPa 0,0 l/m 0,0 km/h (0 Bft) O 90 -19,3 C -15,3 C
07.02.2012 01:07 -15,4 C 71 % 1040,8 hPa 0,0 l/m 0,0 km/h (0 Bft) O 90 -19,4 C -15,4 C
07.02.2012 01:12 -15,3 C 72 % 1040,9 hPa 0,0 l/m 0,0 km/h (0 Bft) O 90 -19,2 C -15,3 C
07.02.2012 01:17 -15,3 C 72 % 1040,8 hPa 0,0 l/m 0,0 km/h (0 Bft) O 90 -19,2 C -15,3 C
07.02.2012 01:22 -15,3 C 72 % 1040,9 hPa 0,0 l/m 0,0 km/h (0 Bft) O 90 -19,2 C -15,3 C
07.02.2012 01:27 -15,3 C 72 % 1040,8 hPa 0,0 l/m 0,0 km/h (0 Bft) O 90 -19,2 C -15,3 C
07.02.2012 01:32 -15,3 C 72 % 1040,8 hPa 0,0 l/m 0,0 km/h (0 Bft) O 90 -19,2 C -15,3 C
07.02.2012 01:37 -15,3 C 72 % 1040,9 hPa 0,0 l/m 0,0 km/h (0 Bft) O 90 -19,2 C -15,3 C
07.02.2012 01:42 -15,2 C 72 % 1040,8 hPa 0,0 l/m 0,0 km/h (0 Bft) O 90 -19,1 C -15,2 C
07.02.2012 01:47 -15,1 C 73 % 1040,6 hPa 0,0 l/m 0,0 km/h (0 Bft) O 90 -18,8 C -15,1 C
07.02.2012 01:52 -15,0 C 73 % 1040,6 hPa 0,0 l/m 0,0 km/h (0 Bft) O 90 -18,7 C -15,0 C
07.02.2012 01:57 -14,9 C 73 % 1040,7 hPa 0,0 l/m 0,0 km/h (0 Bft) O 90 -18,6 C -14,9 C
07.02.2012 02:02 -15,0 C 73 % 1040,6 hPa 0,0 l/m 0,0 km/h (0 Bft) O 90 -18,7 C -15,0 C
07.02.2012 02:07 -15,0 C 73 % 1040,7 hPa 0,0 l/m 0,0 km/h (0 Bft) O 90 -18,7 C -15,0 C
07.02.2012 02:12 -15,0 C 73 % 1040,7 hPa 0,0 l/m 0,0 km/h (0 Bft) O 90 -18,7 C -15,0 C
07.02.2012 02:17 -15,0 C 73 % 1040,7 hPa 0,0 l/m 0,0 km/h (0 Bft) O 90 -18,7 C -15,0 C
07.02.2012 02:22 -14,9 C 73 % 1040,6 hPa 0,0 l/m 0,0 km/h (0 Bft) O 90 -18,6 C -14,9 C
07.02.2012 02:27 -14,9 C 73 % 1040,7 hPa 0,0 l/m 0,0 km/h (0 Bft) O 90 -18,6 C -14,9 C
07.02.2012 02:32 -15,0 C 73 % 1040,6 hPa 0,0 l/m 0,0 km/h (0 Bft) O 90 -18,7 C -15,0 C
07.02.2012 02:37 -15,1 C 73 % 1040,4 hPa 0,0 l/m 0,0 km/h (0 Bft) O 90 -18,8 C -15,1 C
07.02.2012 02:42 -15,1 C 73 % 1040,4 hPa 0,0 l/m 0,0 km/h (0 Bft) O 90 -18,8 C -15,1 C
07.02.2012 02:47 -15,2 C 73 % 1040,4 hPa 0,0 l/m 0,0 km/h (0 Bft) O 90 -18,9 C -15,2 C
07.02.2012 02:52 -15,3 C 74 % 1040,5 hPa 0,0 l/m 0,0 km/h (0 Bft) O 90 -18,9 C -15,3 C
07.02.2012 02:57 -15,3 C 74 % 1040,5 hPa 0,0 l/m 0,0 km/h (0 Bft) O 90 -18,9 C -15,3 C
07.02.2012 03:02 -15,2 C 74 % 1040,5 hPa 0,0 l/m 0,0 km/h (0 Bft) O 90 -18,8 C -15,2 C
07.02.2012 03:07 -15,1 C 74 % 1040,5 hPa 0,0 l/m 1,1 km/h (1 Bft) O 90 -18,7 C -15,1 C
07.02.2012 03:12 -15,1 C 74 % 1040,5 hPa 0,0 l/m 0,0 km/h (0 Bft) O 90 -18,7 C -15,1 C
07.02.2012 03:17 -15,1 C 74 % 1040,5 hPa 0,0 l/m 0,0 km/h (0 Bft) O 90 -18,7 C -15,1 C
07.02.2012 03:22 -15,1 C 74 % 1040,6 hPa 0,0 l/m 0,0 km/h (0 Bft) O 90 -18,7 C -15,1 C
07.02.2012 03:27 -14,9 C 74 % 1040,7 hPa 0,0 l/m 0,0 km/h (0 Bft) O 90 -18,5 C -14,9 C
07.02.2012 03:32 -14,9 C 74 % 1040,4 hPa 0,0 l/m 0,0 km/h (0 Bft) O 90 -18,5 C -14,9 C
07.02.2012 03:37 -14,9 C 75 % 1040,5 hPa 0,0 l/m 0,0 km/h (0 Bft) O 90 -18,3 C -14,9 C
07.02.2012 03:42 -14,8 C 75 % 1040,5 hPa 0,0 l/m 0,0 km/h (0 Bft) O 90 -18,2 C -14,8 C
07.02.2012 03:47 -14,8 C 75 % 1040,3 hPa 0,0 l/m 0,0 km/h (0 Bft) O 90 -18,2 C -14,8 C
07.02.2012 03:52 -14,9 C 74 % 1040,2 hPa 0,0 l/m 0,0 km/h (0 Bft) O 90 -18,5 C -14,9 C
07.02.2012 03:57 -14,9 C 74 % 1040,3 hPa 0,0 l/m 0,0 km/h (0 Bft) O 90 -18,5 C -14,9 C
07.02.2012 04:02 -14,9 C 75 % 1040,2 hPa 0,0 l/m 0,0 km/h (0 Bft) O 90 -18,3 C -14,9 C
07.02.2012 04:07 -14,8 C 75 % 1040,3 hPa 0,0 l/m 0,0 km/h (0 Bft) O 90 -18,2 C -14,8 C
07.02.2012 04:12 -14,7 C 75 % 1040,4 hPa 0,0 l/m 0,0 km/h (0 Bft) O 90 -18,1 C -14,7 C
07.02.2012 04:17 -14,7 C 75 % 1040,4 hPa 0,0 l/m 0,0 km/h (0 Bft) O 90 -18,1 C -14,7 C
07.02.2012 04:22 -14,7 C 75 % 1040,4 hPa 0,0 l/m 0,0 km/h (0 Bft) O 90 -18,1 C -14,7 C
07.02.2012 04:27 -14,7 C 75 % 1040,4 hPa 0,0 l/m 0,0 km/h (0 Bft) O 90 -18,1 C -14,7 C
07.02.2012 04:32 -14,6 C 75 % 1040,5 hPa 0,0 l/m 0,0 km/h (0 Bft) O 90 -18,0 C -14,6 C
07.02.2012 04:37 -14,5 C 75 % 1040,4 hPa 0,0 l/m 0,0 km/h (0 Bft) O 90 -17,9 C -14,5 C
07.02.2012 04:42 -14,5 C 75 % 1040,3 hPa 0,0 l/m 3,6 km/h (1 Bft) O 90 -17,9 C -14,5 C
07.02.2012 04:47 -14,4 C 75 % 1040,3 hPa 0,0 l/m 0,0 km/h (0 Bft) O 90 -17,8 C -14,4 C
07.02.2012 04:52 -14,4 C 75 % 1040,4 hPa 0,0 l/m 0,0 km/h (0 Bft) O 90 -17,8 C -14,4 C
07.02.2012 04:57 -14,4 C 75 % 1040,3 hPa 0,0 l/m 0,0 km/h (0 Bft) O 90 -17,8 C -14,4 C
07.02.2012 05:02 -14,2 C 75 % 1040,2 hPa 0,0 l/m 0,0 km/h (0 Bft) O 90 -17,6 C -14,2 C
07.02.2012 05:07 -14,1 C 75 % 1040,0 hPa 0,0 l/m 0,0 km/h (0 Bft) O 90 -17,5 C -14,1 C
07.02.2012 05:12 -14,1 C 75 % 1040,1 hPa 0,0 l/m 0,0 km/h (0 Bft) O 90 -17,5 C -14,1 C
07.02.2012 05:17 -14,1 C 75 % 1040,1 hPa 0,0 l/m 0,0 km/h (0 Bft) O 90 -17,5 C -14,1 C
07.02.2012 05:22 -13,9 C 76 % 1040,2 hPa 0,0 l/m 0,0 km/h (0 Bft) O 90 -17,2 C -13,9 C
07.02.2012 05:27 -13,9 C 76 % 1040,2 hPa 0,0 l/m 0,0 km/h (0 Bft) O 90 -17,2 C -13,9 C
07.02.2012 05:32 -13,9 C 76 % 1040,3 hPa 0,0 l/m 0,0 km/h (0 Bft) O 90 -17,2 C -13,9 C
07.02.2012 05:37 -13,8 C 76 % 1040,3 hPa 0,0 l/m 0,0 km/h (0 Bft) O 90 -17,1 C -13,8 C
07.02.2012 05:42 -13,8 C 76 % 1040,2 hPa 0,0 l/m 0,0 km/h (0 Bft) O 90 -17,1 C -13,8 C
07.02.2012 05:47 -13,8 C 76 % 1040,2 hPa 0,0 l/m 0,0 km/h (0 Bft) O 90 -17,1 C -13,8 C
07.02.2012 05:52 -13,8 C 76 % 1040,1 hPa 0,0 l/m 0,0 km/h (0 Bft) O 90 -17,1 C -13,8 C
07.02.2012 05:57 -13,9 C 76 % 1040,1 hPa 0,0 l/m 0,0 km/h (0 Bft) O 90 -17,2 C -13,9 C
07.02.2012 06:02 -13,8 C 77 % 1040,3 hPa 0,0 l/m 0,0 km/h (0 Bft) O 90 -16,9 C -13,8 C
07.02.2012 06:07 -13,8 C 77 % 1040,4 hPa 0,0 l/m 0,0 km/h (0 Bft) O 90 -16,9 C -13,8 C
07.02.2012 06:12 -13,8 C 77 % 1040,3 hPa 0,0 l/m 0,0 km/h (0 Bft) O 90 -16,9 C -13,8 C
07.02.2012 06:17 -13,8 C 77 % 1040,4 hPa 0,0 l/m 0,0 km/h (0 Bft) O 90 -16,9 C -13,8 C
07.02.2012 06:22 -13,8 C 77 % 1040,3 hPa 0,0 l/m 0,0 km/h (0 Bft) O 90 -16,9 C -13,8 C
07.02.2012 06:27 -13,8 C 77 % 1040,5 hPa 0,0 l/m 0,0 km/h (0 Bft) O 90 -16,9 C -13,8 C
07.02.2012 06:32 -13,8 C 77 % 1040,7 hPa 0,0 l/m 0,0 km/h (0 Bft) O 90 -16,9 C -13,8 C
07.02.2012 06:37 -13,8 C 77 % 1040,6 hPa 0,0 l/m 0,0 km/h (0 Bft) O 90 -16,9 C -13,8 C
07.02.2012 06:42 -13,7 C 77 % 1040,7 hPa 0,0 l/m 0,0 km/h (0 Bft) O 90 -16,8 C -13,7 C
07.02.2012 06:47 -13,7 C 77 % 1040,6 hPa 0,0 l/m 0,0 km/h (0 Bft) O 90 -16,8 C -13,7 C
07.02.2012 06:52 -13,7 C 77 % 1040,6 hPa 0,0 l/m 0,0 km/h (0 Bft) O 90 -16,8 C -13,7 C
07.02.2012 06:57 -13,8 C 77 % 1040,4 hPa 0,0 l/m 0,0 km/h (0 Bft) O 90 -16,9 C -13,8 C
07.02.2012 07:02 -13,8 C 77 % 1040,7 hPa 0,0 l/m 0,0 km/h (0 Bft) O 90 -16,9 C -13,8 C
07.02.2012 07:07 -13,8 C 78 % 1040,7 hPa 0,0 l/m 0,0 km/h (0 Bft) O 90 -16,8 C -13,8 C
07.02.2012 07:12 -13,8 C 78 % 1040,9 hPa 0,0 l/m 0,0 km/h (0 Bft) O 90 -16,8 C -13,8 C
07.02.2012 07:17 -13,7 C 78 % 1040,9 hPa 0,0 l/m 0,0 km/h (0 Bft) O 90 -16,7 C -13,7 C
07.02.2012 07:22 -13,7 C 78 % 1040,9 hPa 0,0 l/m 0,0 km/h (0 Bft) O 90 -16,7 C -13,7 C
07.02.2012 07:27 -13,6 C 78 % 1040,9 hPa 0,0 l/m 0,0 km/h (0 Bft) O 90 -16,6 C -13,6 C
07.02.2012 07:32 -13,6 C 78 % 1041,0 hPa 0,0 l/m 0,0 km/h (0 Bft) O 90 -16,6 C -13,6 C
07.02.2012 07:37 -13,6 C 78 % 1041,0 hPa 0,0 l/m 0,0 km/h (0 Bft) O 90 -16,6 C -13,6 C
07.02.2012 07:42 -13,6 C 78 % 1041,0 hPa 0,0 l/m 0,0 km/h (0 Bft) O 90 -16,6 C -13,6 C
07.02.2012 07:47 -13,6 C 78 % 1041,1 hPa 0,0 l/m 1,8 km/h (1 Bft) O 90 -16,6 C -13,6 C
07.02.2012 07:52 -13,6 C 79 % 1041,1 hPa 0,0 l/m 1,4 km/h (1 Bft) O 90 -16,4 C -13,6 C
07.02.2012 07:57 -13,6 C 79 % 1041,1 hPa 0,0 l/m 1,4 km/h (1 Bft) O 90 -16,4 C -13,6 C
07.02.2012 08:02 -13,5 C 79 % 1041,0 hPa 0,0 l/m 0,0 km/h (0 Bft) O 90 -16,3 C -13,5 C
07.02.2012 08:07 -13,4 C 79 % 1041,0 hPa 0,0 l/m 0,0 km/h (0 Bft) O 90 -16,2 C -13,4 C
07.02.2012 08:12 -13,3 C 79 % 1041,0 hPa 0,0 l/m 0,0 km/h (0 Bft) O 90 -16,1 C -13,3 C
07.02.2012 08:17 -13,2 C 79 % 1041,1 hPa 0,0 l/m 0,0 km/h (0 Bft) O 90 -16,0 C -13,2 C
07.02.2012 08:22 -13,2 C 79 % 1041,2 hPa 0,0 l/m 4,0 km/h (1 Bft) O 90 -16,0 C -13,2 C
07.02.2012 08:27 -13,2 C 79 % 1041,3 hPa 0,0 l/m 2,5 km/h (1 Bft) O 90 -16,0 C -13,2 C
07.02.2012 08:32 -13,1 C 79 % 1041,5 hPa 0,0 l/m 0,0 km/h (0 Bft) O 90 -16,0 C -13,1 C
07.02.2012 08:37 -13,1 C 79 % 1041,5 hPa 0,0 l/m 2,9 km/h (1 Bft) O 90 -16,0 C -13,1 C
07.02.2012 08:42 -13,0 C 79 % 1041,4 hPa 0,0 l/m 3,6 km/h (1 Bft) O 90 -15,9 C -13,0 C
07.02.2012 08:47 -12,8 C 79 % 1041,5 hPa 0,0 l/m 1,1 km/h (1 Bft) O 90 -15,7 C -12,8 C
07.02.2012 08:52 -12,7 C 79 % 1041,4 hPa 0,0 l/m 2,9 km/h (1 Bft) O 90 -15,6 C -12,7 C
07.02.2012 08:57 -12,6 C 79 % 1041,3 hPa 0,0 l/m 4,7 km/h (1 Bft) O 90 -15,5 C -15,7 C
07.02.2012 09:02 -12,4 C 79 % 1041,3 hPa 0,0 l/m 2,5 km/h (1 Bft) O 90 -15,3 C -12,4 C
07.02.2012 09:07 -12,4 C 79 % 1041,5 hPa 0,0 l/m 1,8 km/h (1 Bft) O 90 -15,3 C -12,4 C
07.02.2012 09:12 -12,2 C 79 % 1041,4 hPa 0,0 l/m 3,2 km/h (1 Bft) O 90 -15,1 C -12,2 C
07.02.2012 09:17 -12,1 C 79 % 1041,4 hPa 0,0 l/m 1,4 km/h (1 Bft) O 90 -15,0 C -12,1 C
07.02.2012 09:22 -11,9 C 79 % 1041,6 hPa 0,0 l/m 2,5 km/h (1 Bft) O 90 -14,8 C -11,9 C
07.02.2012 09:27 -11,8 C 79 % 1041,4 hPa 0,0 l/m 4,0 km/h (1 Bft) O 90 -14,7 C -11,8 C
07.02.2012 09:32 -11,6 C 79 % 1041,5 hPa 0,0 l/m 2,2 km/h (1 Bft) O 90 -14,5 C -11,6 C
07.02.2012 09:37 -11,4 C 79 % 1041,6 hPa 0,0 l/m 4,7 km/h (1 Bft) O 90 -14,3 C -14,3 C
07.02.2012 09:42 -11,2 C 79 % 1041,7 hPa 0,0 l/m 2,2 km/h (1 Bft) O 90 -14,1 C -11,2 C
07.02.2012 09:47 -11,1 C 78 % 1041,7 hPa 0,0 l/m 2,5 km/h (1 Bft) O 90 -14,2 C -11,1 C
07.02.2012 09:52 -10,9 C 78 % 1041,8 hPa 0,0 l/m 4,0 km/h (1 Bft) O 90 -14,0 C -10,9 C
07.02.2012 09:57 -10,7 C 78 % 1041,7 hPa 0,0 l/m 3,6 km/h (1 Bft) O 90 -13,8 C -10,7 C
07.02.2012 10:02 -10,6 C 78 % 1041,7 hPa 0,0 l/m 8,3 km/h (2 Bft) O 90 -13,7 C -15,3 C
07.02.2012 10:07 -10,6 C 78 % 1041,9 hPa 0,0 l/m 3,2 km/h (1 Bft) O 90 -13,7 C -10,6 C
07.02.2012 10:12 -10,5 C 77 % 1041,9 hPa 0,0 l/m 4,7 km/h (1 Bft) O 90 -13,7 C -13,3 C
07.02.2012 10:17 -10,4 C 77 % 1041,9 hPa 0,0 l/m 4,0 km/h (1 Bft) O 90 -13,6 C -10,4 C
07.02.2012 10:22 -10,2 C 77 % 1041,9 hPa 0,0 l/m 0,0 km/h (0 Bft) O 90 -13,4 C -10,2 C
07.02.2012 10:27 -10,1 C 77 % 1041,8 hPa 0,0 l/m 1,8 km/h (1 Bft) O 90 -13,3 C -10,1 C
07.02.2012 10:32 -9,9 C 77 % 1041,9 hPa 0,0 l/m 0,0 km/h (0 Bft) O 90 -13,1 C -9,9 C
07.02.2012 10:37 -9,6 C 77 % 1041,9 hPa 0,0 l/m 1,8 km/h (1 Bft) O 90 -12,9 C -9,6 C
07.02.2012 10:42 -9,5 C 76 % 1041,9 hPa 0,0 l/m 2,2 km/h (1 Bft) O 90 -12,9 C -9,5 C
07.02.2012 10:47 -9,3 C 76 % 1042,0 hPa 0,0 l/m 3,2 km/h (1 Bft) O 90 -12,7 C -9,3 C
07.02.2012 10:52 -9,2 C 76 % 1042,0 hPa 0,0 l/m 0,0 km/h (0 Bft) O 90 -12,6 C -9,2 C
07.02.2012 10:57 -9,1 C 76 % 1042,0 hPa 0,0 l/m 5,8 km/h (2 Bft) O 90 -12,5 C -12,4 C
07.02.2012 11:02 -9,1 C 76 % 1042,0 hPa 0,0 l/m 3,2 km/h (1 Bft) O 90 -12,5 C -9,1 C
07.02.2012 11:07 -9,0 C 75 % 1042,0 hPa 0,0 l/m 0,0 km/h (0 Bft) O 90 -12,6 C -9,0 C
07.02.2012 11:12 -8,8 C 75 % 1042,0 hPa 0,0 l/m 2,5 km/h (1 Bft) O 90 -12,4 C -8,8 C
07.02.2012 11:17 -8,7 C 75 % 1042,2 hPa 0,0 l/m 2,9 km/h (1 Bft) O 90 -12,3 C -8,7 C
07.02.2012 11:22 -8,6 C 75 % 1042,2 hPa 0,0 l/m 4,7 km/h (1 Bft) O 90 -12,2 C -11,2 C
07.02.2012 11:27 -8,4 C 74 % 1042,3 hPa 0,0 l/m 8,6 km/h (2 Bft) O 90 -12,2 C -12,8 C
07.02.2012 11:32 -8,2 C 74 % 1042,0 hPa 0,0 l/m 3,6 km/h (1 Bft) O 90 -12,0 C -8,2 C
07.02.2012 11:37 -8,1 C 75 % 1042,2 hPa 0,0 l/m 3,2 km/h (1 Bft) O 90 -11,7 C -8,1 C
07.02.2012 11:42 -8,0 C 74 % 1042,1 hPa 0,0 l/m 6,5 km/h (2 Bft) O 90 -11,8 C -11,5 C
07.02.2012 11:47 -8,1 C 74 % 1042,1 hPa 0,0 l/m 11,5 km/h (2 Bft) O 90 -11,9 C -13,5 C
07.02.2012 11:52 -7,9 C 73 % 1042,0 hPa 0,0 l/m 10,4 km/h (2 Bft) O 90 -11,9 C -12,9 C
07.02.2012 11:57 -7,7 C 73 % 1041,9 hPa 0,0 l/m 6,1 km/h (2 Bft) O 90 -11,7 C -10,9 C
07.02.2012 12:02 -7,6 C 73 % 1042,1 hPa 0,0 l/m 3,6 km/h (1 Bft) O 90 -11,6 C -7,6 C
07.02.2012 12:07 -7,4 C 73 % 1042,0 hPa 0,0 l/m 4,0 km/h (1 Bft) O 90 -11,4 C -7,4 C
07.02.2012 12:12 -7,3 C 72 % 1042,0 hPa 0,0 l/m 4,7 km/h (1 Bft) O 90 -11,5 C -9,7 C
07.02.2012 12:17 -7,2 C 72 % 1041,8 hPa 0,0 l/m 8,6 km/h (2 Bft) O 90 -11,4 C -11,4 C
07.02.2012 12:22 -7,1 C 72 % 1042,0 hPa 0,0 l/m 0,0 km/h (0 Bft) O 90 -11,3 C -7,1 C
07.02.2012 12:27 -7,0 C 72 % 1041,9 hPa 0,0 l/m 9,7 km/h (2 Bft) O 90 -11,2 C -11,6 C
07.02.2012 12:32 -7,1 C 71 % 1041,7 hPa 0,0 l/m 1,8 km/h (1 Bft) O 90 -11,4 C -7,1 C
07.02.2012 12:37 -6,9 C 71 % 1041,8 hPa 0,0 l/m 11,2 km/h (2 Bft) O 90 -11,2 C -11,9 C
07.02.2012 12:42 -6,9 C 71 % 1041,8 hPa 0,0 l/m 7,9 km/h (2 Bft) O 90 -11,2 C -10,8 C
07.02.2012 12:47 -6,9 C 71 % 1041,7 hPa 0,0 l/m 10,1 km/h (2 Bft) O 90 -11,2 C -11,6 C
07.02.2012 12:52 -6,9 C 71 % 1041,9 hPa 0,0 l/m 7,9 km/h (2 Bft) O 90 -11,2 C -10,8 C
07.02.2012 12:57 -6,7 C 71 % 1041,8 hPa 0,0 l/m 2,9 km/h (1 Bft) O 90 -11,1 C -6,7 C
07.02.2012 13:02 -6,7 C 71 % 1041,7 hPa 0,0 l/m 6,5 km/h (2 Bft) O 90 -11,1 C -10,0 C
07.02.2012 13:07 -6,7 C 71 % 1041,9 hPa 0,0 l/m 4,7 km/h (1 Bft) O 90 -11,1 C -9,0 C
07.02.2012 13:12 -6,6 C 71 % 1041,8 hPa 0,0 l/m 2,5 km/h (1 Bft) O 90 -11,0 C -6,6 C
07.02.2012 13:17 -6,4 C 71 % 1041,7 hPa 0,0 l/m 4,0 km/h (1 Bft) O 90 -10,8 C -6,4 C
07.02.2012 13:22 -6,3 C 71 % 1041,6 hPa 0,0 l/m 13,7 km/h (3 Bft) O 90 -10,7 C -11,9 C
07.02.2012 13:27 -6,2 C 70 % 1041,6 hPa 0,0 l/m 8,6 km/h (2 Bft) O 90 -10,8 C -10,2 C
07.02.2012 13:32 -6,1 C 70 % 1041,5 hPa 0,0 l/m 12,6 km/h (3 Bft) O 90 -10,7 C -11,4 C
07.02.2012 13:37 -5,9 C 70 % 1041,4 hPa 0,0 l/m 13,3 km/h (3 Bft) O 90 -10,5 C -11,3 C
07.02.2012 13:42 -5,8 C 71 % 1041,6 hPa 0,0 l/m 10,1 km/h (2 Bft) O 90 -10,2 C -10,3 C
07.02.2012 13:47 -5,7 C 70 % 1041,5 hPa 0,0 l/m 15,8 km/h (3 Bft) O 90 -10,3 C -11,6 C
07.02.2012 13:52 -5,5 C 70 % 1041,4 hPa 0,0 l/m 13,3 km/h (3 Bft) O 90 -10,1 C -10,8 C
07.02.2012 13:57 -5,4 C 70 % 1041,3 hPa 0,0 l/m 6,8 km/h (2 Bft) O 90 -10,0 C -8,6 C
07.02.2012 14:02 -5,2 C 71 % 1041,5 hPa 0,0 l/m 11,2 km/h (2 Bft) O 90 -9,6 C -9,9 C
07.02.2012 14:07 -5,1 C 70 % 1041,4 hPa 0,0 l/m 17,3 km/h (3 Bft) O 90 -9,7 C -11,2 C
07.02.2012 14:12 -5,1 C 70 % 1041,2 hPa 0,0 l/m 5,4 km/h (1 Bft) O 90 -9,7 C -7,6 C
07.02.2012 14:17 -5,2 C 70 % 1041,2 hPa 0,0 l/m 7,2 km/h (2 Bft) O 90 -9,8 C -8,5 C
07.02.2012 14:22 -5,2 C 71 % 1041,2 hPa 0,0 l/m 3,6 km/h (1 Bft) O 90 -9,6 C -5,2 C
07.02.2012 14:27 -5,2 C 71 % 1041,3 hPa 0,0 l/m 6,5 km/h (2 Bft) O 90 -9,6 C -8,2 C
07.02.2012 14:32 -5,2 C 71 % 1041,4 hPa 0,0 l/m 14,0 km/h (3 Bft) O 90 -9,6 C -10,6 C
07.02.2012 14:37 -5,2 C 71 % 1041,3 hPa 0,0 l/m 6,1 km/h (2 Bft) O 90 -9,6 C -8,1 C
07.02.2012 14:42 -5,1 C 71 % 1041,3 hPa 0,0 l/m 7,6 km/h (2 Bft) O 90 -9,5 C -8,6 C
07.02.2012 14:47 -5,2 C 71 % 1041,3 hPa 0,0 l/m 16,6 km/h (3 Bft) O 90 -9,6 C -11,2 C
07.02.2012 14:52 -5,1 C 71 % 1041,4 hPa 0,0 l/m 11,2 km/h (2 Bft) O 90 -9,5 C -9,8 C
07.02.2012 14:57 -5,1 C 71 % 1041,4 hPa 0,0 l/m 6,8 km/h (2 Bft) O 90 -9,5 C -8,2 C
07.02.2012 15:02 -5,1 C 71 % 1041,5 hPa 0,0 l/m 7,2 km/h (2 Bft) O 90 -9,5 C -8,4 C
07.02.2012 15:07 -5,1 C 71 % 1041,5 hPa 0,0 l/m 13,7 km/h (3 Bft) O 90 -9,5 C -10,4 C
07.02.2012 15:12 -5,2 C 71 % 1041,6 hPa 0,0 l/m 9,4 km/h (2 Bft) O 90 -9,6 C -9,3 C
07.02.2012 15:17 -5,3 C 71 % 1041,6 hPa 0,0 l/m 5,0 km/h (1 Bft) O 90 -9,7 C -7,6 C
07.02.2012 15:22 -5,2 C 71 % 1041,6 hPa 0,0 l/m 7,6 km/h (2 Bft) O 90 -9,6 C -8,7 C
07.02.2012 15:27 -5,3 C 71 % 1041,7 hPa 0,0 l/m 9,7 km/h (2 Bft) O 90 -9,7 C -9,6 C
07.02.2012 15:32 -5,4 C 71 % 1041,6 hPa 0,0 l/m 7,2 km/h (2 Bft) O 90 -9,8 C -8,8 C
07.02.2012 15:37 -5,4 C 72 % 1041,6 hPa 0,0 l/m 3,2 km/h (1 Bft) O 90 -9,6 C -5,4 C
07.02.2012 15:42 -5,4 C 72 % 1041,7 hPa 0,0 l/m 6,1 km/h (2 Bft) O 90 -9,6 C -8,3 C
07.02.2012 15:47 -5,4 C 72 % 1041,9 hPa 0,0 l/m 5,8 km/h (2 Bft) O 90 -9,6 C -8,1 C
07.02.2012 15:52 -5,5 C 72 % 1041,9 hPa 0,0 l/m 17,3 km/h (3 Bft) O 90 -9,7 C -11,7 C
07.02.2012 15:57 -5,5 C 72 % 1042,0 hPa 0,0 l/m 4,3 km/h (1 Bft) O 90 -9,7 C -5,5 C
07.02.2012 16:02 -5,5 C 72 % 1041,9 hPa 0,0 l/m 8,6 km/h (2 Bft) O 90 -9,7 C -9,4 C
07.02.2012 16:07 -5,5 C 72 % 1041,9 hPa 0,0 l/m 6,1 km/h (2 Bft) O 90 -9,7 C -8,4 C
07.02.2012 16:12 -5,5 C 72 % 1041,9 hPa 0,0 l/m 7,2 km/h (2 Bft) O 90 -9,7 C -8,9 C
07.02.2012 16:17 -5,5 C 72 % 1042,0 hPa 0,0 l/m 6,8 km/h (2 Bft) O 90 -9,7 C -8,7 C
07.02.2012 16:22 -5,5 C 72 % 1042,0 hPa 0,0 l/m 4,3 km/h (1 Bft) O 90 -9,7 C -5,5 C
07.02.2012 16:27 -5,5 C 72 % 1042,0 hPa 0,0 l/m 9,7 km/h (2 Bft) O 90 -9,7 C -9,8 C
07.02.2012 16:32 -5,5 C 72 % 1042,0 hPa 0,0 l/m 5,4 km/h (1 Bft) O 90 -9,7 C -8,0 C
07.02.2012 16:37 -5,5 C 72 % 1042,0 hPa 0,0 l/m 4,7 km/h (1 Bft) O 90 -9,7 C -7,7 C
07.02.2012 16:42 -5,6 C 72 % 1042,2 hPa 0,0 l/m 6,5 km/h (2 Bft) O 90 -9,8 C -8,7 C
07.02.2012 16:47 -5,6 C 72 % 1042,1 hPa 0,0 l/m 11,9 km/h (2 Bft) O 90 -9,8 C -10,6 C
07.02.2012 16:52 -5,6 C 73 % 1042,1 hPa 0,0 l/m 5,0 km/h (1 Bft) O 90 -9,6 C -7,9 C
07.02.2012 16:57 -5,7 C 73 % 1042,1 hPa 0,0 l/m 7,2 km/h (2 Bft) O 90 -9,7 C -9,1 C
07.02.2012 17:02 -5,7 C 73 % 1042,2 hPa 0,0 l/m 3,2 km/h (1 Bft) O 90 -9,7 C -5,7 C
07.02.2012 17:07 -5,7 C 73 % 1042,2 hPa 0,0 l/m 7,6 km/h (2 Bft) O 90 -9,7 C -9,3 C
07.02.2012 17:12 -5,7 C 74 % 1042,2 hPa 0,0 l/m 5,4 km/h (1 Bft) O 90 -9,6 C -8,3 C
07.02.2012 17:17 -5,8 C 73 % 1042,4 hPa 0,0 l/m 2,2 km/h (1 Bft) O 90 -9,8 C -5,8 C
07.02.2012 17:22 -5,8 C 73 % 1042,3 hPa 0,0 l/m 3,6 km/h (1 Bft) O 90 -9,8 C -5,8 C
07.02.2012 17:27 -5,8 C 74 % 1042,2 hPa 0,0 l/m 8,6 km/h (2 Bft) O 90 -9,7 C -9,8 C
07.02.2012 17:32 -5,8 C 74 % 1042,3 hPa 0,0 l/m 2,2 km/h (1 Bft) O 90 -9,7 C -5,8 C
07.02.2012 17:37 -5,9 C 74 % 1042,2 hPa 0,0 l/m 0,0 km/h (0 Bft) O 90 -9,8 C -5,9 C
07.02.2012 17:42 -5,9 C 74 % 1042,2 hPa 0,0 l/m 2,5 km/h (1 Bft) O 90 -9,8 C -5,9 C
07.02.2012 17:47 -5,9 C 74 % 1042,5 hPa 0,0 l/m 3,2 km/h (1 Bft) O 90 -9,8 C -5,9 C
07.02.2012 17:52 -5,9 C 74 % 1042,4 hPa 0,0 l/m 4,3 km/h (1 Bft) O 90 -9,8 C -5,9 C
07.02.2012 17:57 -5,9 C 75 % 1042,4 hPa 0,0 l/m 7,9 km/h (2 Bft) O 90 -9,6 C -9,6 C
07.02.2012 18:02 -5,9 C 75 % 1042,5 hPa 0,0 l/m 5,0 km/h (1 Bft) O 90 -9,6 C -8,3 C
07.02.2012 18:07 -6,0 C 75 % 1042,7 hPa 0,0 l/m 7,6 km/h (2 Bft) O 90 -9,7 C -9,6 C
07.02.2012 18:12 -6,1 C 75 % 1042,8 hPa 0,0 l/m 6,1 km/h (2 Bft) O 90 -9,8 C -9,1 C
07.02.2012 18:17 -6,1 C 75 % 1042,7 hPa 0,0 l/m 7,9 km/h (2 Bft) O 90 -9,8 C -9,9 C
07.02.2012 18:22 -6,1 C 75 % 1042,6 hPa 0,0 l/m 10,8 km/h (2 Bft) O 90 -9,8 C -10,8 C
07.02.2012 18:27 -6,1 C 75 % 1042,7 hPa 0,0 l/m 4,7 km/h (1 Bft) O 90 -9,8 C -8,3 C
07.02.2012 18:32 -6,1 C 75 % 1042,8 hPa 0,0 l/m 4,0 km/h (1 Bft) O 90 -9,8 C -6,1 C
07.02.2012 18:37 -6,1 C 75 % 1042,7 hPa 0,0 l/m 2,2 km/h (1 Bft) O 90 -9,8 C -6,1 C
07.02.2012 18:42 -6,1 C 75 % 1042,8 hPa 0,0 l/m 0,0 km/h (0 Bft) O 90 -9,8 C -6,1 C
07.02.2012 18:47 -6,1 C 75 % 1042,8 hPa 0,0 l/m 2,9 km/h (1 Bft) O 90 -9,8 C -6,1 C
07.02.2012 18:52 -6,2 C 75 % 1042,8 hPa 0,0 l/m 3,6 km/h (1 Bft) O 90 -9,9 C -6,2 C
07.02.2012 18:57 -6,2 C 75 % 1042,7 hPa 0,0 l/m 2,2 km/h (1 Bft) O 90 -9,9 C -6,2 C
07.02.2012 19:02 -6,2 C 75 % 1042,9 hPa 0,0 l/m 2,2 km/h (1 Bft) O 90 -9,9 C -6,2 C
07.02.2012 19:07 -6,3 C 75 % 1042,7 hPa 0,0 l/m 4,0 km/h (1 Bft) O 90 -10,0 C -6,3 C
07.02.2012 19:12 -6,4 C 75 % 1042,9 hPa 0,0 l/m 0,0 km/h (0 Bft) O 90 -10,1 C -6,4 C
07.02.2012 19:17 -6,4 C 75 % 1042,8 hPa 0,0 l/m 1,8 km/h (1 Bft) O 90 -10,1 C -6,4 C
07.02.2012 19:22 -6,4 C 75 % 1043,0 hPa 0,0 l/m 3,6 km/h (1 Bft) O 90 -10,1 C -6,4 C
07.02.2012 19:27 -6,4 C 76 % 1042,9 hPa 0,0 l/m 0,0 km/h (0 Bft) O 90 -9,9 C -6,4 C
07.02.2012 19:32 -6,5 C 76 % 1043,0 hPa 0,0 l/m 1,4 km/h (1 Bft) O 90 -10,0 C -6,5 C
07.02.2012 19:37 -6,5 C 76 % 1043,0 hPa 0,0 l/m 4,7 km/h (1 Bft) O 90 -10,0 C -8,8 C
07.02.2012 19:42 -6,5 C 76 % 1043,1 hPa 0,0 l/m 7,6 km/h (2 Bft) O 90 -10,0 C -10,2 C
07.02.2012 19:47 -6,5 C 76 % 1043,1 hPa 0,0 l/m 4,0 km/h (1 Bft) O 90 -10,0 C -6,5 C
07.02.2012 19:52 -6,5 C 77 % 1043,1 hPa 0,0 l/m 7,2 km/h (2 Bft) O 90 -9,8 C -10,0 C
07.02.2012 19:57 -6,6 C 77 % 1043,1 hPa 0,0 l/m 6,1 km/h (2 Bft) O 90 -9,9 C -9,7 C
07.02.2012 20:02 -6,6 C 77 % 1043,1 hPa 0,0 l/m 1,8 km/h (1 Bft) O 90 -9,9 C -6,6 C
07.02.2012 20:07 -6,6 C 77 % 1043,2 hPa 0,0 l/m 3,2 km/h (1 Bft) O 90 -9,9 C -6,6 C
07.02.2012 20:12 -6,7 C 77 % 1043,1 hPa 0,0 l/m 2,5 km/h (1 Bft) O 90 -10,0 C -6,7 C
07.02.2012 20:17 -6,7 C 78 % 1043,2 hPa 0,0 l/m 2,9 km/h (1 Bft) O 90 -9,9 C -6,7 C
07.02.2012 20:22 -6,7 C 78 % 1043,2 hPa 0,0 l/m 2,5 km/h (1 Bft) O 90 -9,9 C -6,7 C
07.02.2012 20:27 -6,7 C 78 % 1043,1 hPa 0,0 l/m 3,2 km/h (1 Bft) O 90 -9,9 C -6,7 C
07.02.2012 20:32 -6,8 C 78 % 1043,0 hPa 0,0 l/m 4,0 km/h (1 Bft) O 90 -10,0 C -6,8 C
07.02.2012 20:37 -6,8 C 78 % 1043,3 hPa 0,0 l/m 0,0 km/h (0 Bft) O 90 -10,0 C -6,8 C
07.02.2012 20:42 -6,8 C 78 % 1043,2 hPa 0,0 l/m 0,0 km/h (0 Bft) O 90 -10,0 C -6,8 C
07.02.2012 20:47 -6,9 C 78 % 1043,3 hPa 0,0 l/m 0,0 km/h (0 Bft) O 90 -10,1 C -6,9 C
07.02.2012 20:52 -6,9 C 79 % 1043,3 hPa 0,0 l/m 6,1 km/h (2 Bft) O 90 -9,9 C -10,0 C
07.02.2012 20:57 -6,9 C 79 % 1043,5 hPa 0,0 l/m 3,6 km/h (1 Bft) O 90 -9,9 C -6,9 C
07.02.2012 21:02 -6,9 C 79 % 1043,4 hPa 0,0 l/m 2,9 km/h (1 Bft) O 90 -9,9 C -6,9 C
07.02.2012 21:07 -6,9 C 79 % 1043,4 hPa 0,0 l/m 2,5 km/h (1 Bft) O 90 -9,9 C -6,9 C
07.02.2012 21:12 -6,9 C 79 % 1043,4 hPa 0,0 l/m 3,2 km/h (1 Bft) O 90 -9,9 C -6,9 C
07.02.2012 21:17 -6,9 C 80 % 1043,6 hPa 0,0 l/m 2,2 km/h (1 Bft) O 90 -9,8 C -6,9 C
07.02.2012 21:22 -6,9 C 80 % 1043,6 hPa 0,0 l/m 6,8 km/h (2 Bft) O 90 -9,8 C -10,3 C
07.02.2012 21:27 -6,8 C 80 % 1043,5 hPa 0,0 l/m 4,3 km/h (1 Bft) O 90 -9,7 C -6,8 C
07.02.2012 21:32 -6,7 C 80 % 1043,5 hPa 0,0 l/m 3,6 km/h (1 Bft) O 90 -9,6 C -6,7 C
07.02.2012 21:37 -6,6 C 80 % 1043,7 hPa 0,0 l/m 3,6 km/h (1 Bft) O 90 -9,5 C -6,6 C
07.02.2012 21:42 -6,6 C 81 % 1043,4 hPa 0,0 l/m 4,3 km/h (1 Bft) O 90 -9,3 C -6,6 C
07.02.2012 21:47 -6,5 C 81 % 1043,4 hPa 0,0 l/m 3,2 km/h (1 Bft) O 90 -9,2 C -6,5 C
07.02.2012 21:52 -6,4 C 81 % 1043,4 hPa 0,0 l/m 7,6 km/h (2 Bft) O 90 -9,1 C -10,1 C
07.02.2012 21:57 -6,4 C 81 % 1043,4 hPa 0,0 l/m 5,8 km/h (2 Bft) O 90 -9,1 C -9,3 C
07.02.2012 22:02 -6,3 C 81 % 1043,3 hPa 0,0 l/m 6,5 km/h (2 Bft) O 90 -9,0 C -9,5 C
07.02.2012 22:07 -6,2 C 80 % 1043,4 hPa 0,0 l/m 2,9 km/h (1 Bft) O 90 -9,1 C -6,2 C
07.02.2012 22:12 -6,2 C 80 % 1043,3 hPa 0,0 l/m 7,9 km/h (2 Bft) O 90 -9,1 C -10,0 C
07.02.2012 22:17 -6,1 C 80 % 1043,4 hPa 0,0 l/m 2,5 km/h (1 Bft) O 90 -9,0 C -6,1 C
07.02.2012 22:22 -6,1 C 80 % 1043,5 hPa 0,0 l/m 5,8 km/h (2 Bft) O 90 -9,0 C -8,9 C
07.02.2012 22:27 -6,1 C 80 % 1043,3 hPa 0,0 l/m 6,5 km/h (2 Bft) O 90 -9,0 C -9,3 C
07.02.2012 22:32 -6,1 C 80 % 1043,3 hPa 0,0 l/m 7,6 km/h (2 Bft) O 90 -9,0 C -9,7 C
07.02.2012 22:37 -5,9 C 80 % 1043,5 hPa 0,0 l/m 4,0 km/h (1 Bft) O 90 -8,8 C -5,9 C
07.02.2012 22:42 -5,9 C 80 % 1043,3 hPa 0,0 l/m 7,9 km/h (2 Bft) O 90 -8,8 C -9,6 C
07.02.2012 22:47 -5,9 C 79 % 1043,3 hPa 0,0 l/m 5,0 km/h (1 Bft) O 90 -8,9 C -8,3 C
07.02.2012 22:52 -5,8 C 79 % 1043,1 hPa 0,0 l/m 11,2 km/h (2 Bft) O 90 -8,8 C -10,6 C
07.02.2012 22:57 -5,7 C 79 % 1043,3 hPa 0,0 l/m 3,2 km/h (1 Bft) O 90 -8,7 C -5,7 C
07.02.2012 23:02 -5,7 C 79 % 1043,2 hPa 0,0 l/m 5,8 km/h (2 Bft) O 90 -8,7 C -8,5 C
07.02.2012 23:07 -5,7 C 79 % 1043,4 hPa 0,0 l/m 4,3 km/h (1 Bft) O 90 -8,7 C -5,7 C
07.02.2012 23:12 -5,6 C 79 % 1043,3 hPa 0,0 l/m 5,0 km/h (1 Bft) O 90 -8,6 C -7,9 C
07.02.2012 23:17 -5,6 C 79 % 1043,4 hPa 0,0 l/m 9,0 km/h (2 Bft) O 90 -8,6 C -9,7 C
07.02.2012 23:22 -5,6 C 79 % 1043,4 hPa 0,0 l/m 4,7 km/h (1 Bft) O 90 -8,6 C -7,8 C
07.02.2012 23:27 -5,6 C 79 % 1043,5 hPa 0,0 l/m 7,9 km/h (2 Bft) O 90 -8,6 C -9,3 C
07.02.2012 23:32 -5,6 C 78 % 1043,3 hPa 0,0 l/m 18,0 km/h (3 Bft) O 90 -8,8 C -11,9 C
07.02.2012 23:37 -5,6 C 78 % 1043,3 hPa 0,0 l/m 10,4 km/h (2 Bft) O 90 -8,8 C -10,1 C
07.02.2012 23:42 -5,6 C 78 % 1043,3 hPa 0,0 l/m 6,1 km/h (2 Bft) O 90 -8,8 C -8,5 C
07.02.2012 23:47 -5,5 C 78 % 1043,4 hPa 0,0 l/m 5,0 km/h (1 Bft) O 90 -8,7 C -7,8 C
07.02.2012 23:52 -5,5 C 78 % 1043,5 hPa 0,0 l/m 6,1 km/h (2 Bft) O 90 -8,7 C -8,4 C
07.02.2012 23:57 -5,5 C 78 % 1043,3 hPa 0,0 l/m 5,0 km/h (1 Bft) O 90 -8,7 C -7,8 C
_ Min-Zeit 01:07 13:27 05:07 - 00:27 - - 01:07 08:57
Minimum _ -15,4 C 70 % 1040,0 hPa - 0,0 km/h (0 Bft) - - -19,4 C -15,7 C
_ Max-Zeit 14:07 21:42 21:37 00:02 23:32 - - 23:12 14:22
Maximum _ -5,1 C 81 % 1043,7 hPa 0,0 l/m 18,0 km/h
O (3 Bft)
- - -8,6 C -5,2 C
Durchschnitt _ -9,7 C 75 % 1041,7 hPa #0,0 l/m 3,7 km/h (1 Bft) O - -13,2 C -10,9 C
(c) by David Heller